메인 페이지
METAR-TAF:

METAR-TAF

공항 :

라왈핀디, 파키스탄

위도: 33-37N, 경도: 073-06E, 고도: 507m

현재 날씨관측

예보는 39분 전, 23:30시(UTC)에 발표되었습니다.
무풍
온도 10°C
습도 76%
기압 1012 hPa
시정: 4000m
고도 6500ft 상공 구름 보통
박무

METAR: OPRN 232330Z 00000KT 4000 BR SCT065 10/06 Q1012 NOSIG RMK A2991

시각: 05:09 (00:09 UTC)

예보

예보는 2 시간 39분 전, 21:30시(UTC)에 발표되었습니다.
예보 대상 시간: 23일 24시부터 25일 06시까지 (UTC)
10kt
시정: 5000m
고도 4000ft 상공 구름 조금
연무
일시적
24일 00시부터 24일 03시까지 (UTC)
동북동6kt
시정: 2000m
박무
전환 중
24일 12시부터 24일 14시까지 (UTC)
고도 10000ft 상공 구름 보통
고도 16000ft 상공 구름 보통

TAF: OPRN 232130Z 2324/2506 27010KT 5000 HZ FEW040 TEMPO 2400/2403 07006KT 2000 BR BECMG 2412/2414 SCT100 SCT160

4,000개 이상의 공항 관측 자료 및 예보 (METAR 및 TAF 보고).

지도상에서 검색 가능한 기상관측소가 노란 점과 빨간 점으로 표시되어 있습니다.

기상관측소 명을 보려면 표시 위로 마우스를 이동하세요.

날씨 관측과 예보를 보려면 클릭하세요.

지도 변경 : 확대하려면 엑스 표시가 있는 녹색 버튼, 축소하려면 빼기 표시가 있는 녹색 버튼, 다음 페이지의 지도를 보려면 녹색 화살표를 클릭하세요.


METAR-TAF: